createdAt,value
2018-12-06T00:00:02.578Z,3
2018-12-06T00:05:03.381Z,3
2018-12-06T00:10:02.951Z,2
2018-12-06T00:15:03.491Z,2
2018-12-06T00:20:03.209Z,2
2018-12-06T00:25:02.765Z,2
2018-12-06T00:30:03.309Z,1
2018-12-06T00:35:02.834Z,2
2018-12-06T00:40:03.334Z,1
2018-12-06T00:45:02.759Z,3
2018-12-06T00:50:03.317Z,4
2018-12-06T00:55:02.764Z,2
2018-12-06T01:00:03.247Z,3
2018-12-06T01:05:02.698Z,2
2018-12-06T01:10:03.175Z,3
2018-12-06T01:15:02.690Z,1
2018-12-06T01:20:03.365Z,3
2018-12-06T01:25:02.859Z,3
2018-12-06T01:30:03.309Z,2
2018-12-06T01:35:02.785Z,2
2018-12-06T01:40:03.270Z,5
2018-12-06T01:45:02.769Z,5
2018-12-06T01:50:03.171Z,4
2018-12-06T01:55:02.603Z,4
2018-12-06T02:00:03.100Z,7
2018-12-06T02:05:03.543Z,4
2018-12-06T02:10:03.096Z,8
2018-12-06T02:15:03.508Z,7
2018-12-06T02:20:03.015Z,3
2018-12-06T02:25:03.457Z,5
2018-12-06T02:30:03.036Z,3
2018-12-06T02:35:02.750Z,3
2018-12-06T02:40:03.271Z,3
2018-12-06T02:45:02.724Z,2
2018-12-06T02:50:03.214Z,0
2018-12-06T02:55:02.671Z,4
2018-12-06T03:00:03.109Z,2
2018-12-06T03:05:02.629Z,4
2018-12-06T03:10:03.241Z,2
2018-12-06T03:15:02.758Z,0
2018-12-06T03:20:03.489Z,1
2018-12-06T03:25:02.888Z,0
2018-12-06T03:30:03.409Z,0
2018-12-06T03:35:02.863Z,2
2018-12-06T03:40:03.429Z,2
2018-12-06T03:45:03.003Z,2
2018-12-06T03:50:03.491Z,4
2018-12-06T03:55:02.981Z,4
2018-12-06T04:00:03.817Z,3
2018-12-06T04:05:03.321Z,2
2018-12-06T04:10:02.954Z,2
2018-12-06T04:15:03.472Z,3
2018-12-06T04:20:03.228Z,2
2018-12-06T04:25:02.661Z,5
2018-12-06T04:30:03.059Z,3
2018-12-06T04:35:03.472Z,3
2018-12-06T04:40:02.973Z,4
2018-12-06T04:45:03.365Z,1
2018-12-06T04:50:02.837Z,3
2018-12-06T04:55:03.276Z,2
2018-12-06T05:00:02.980Z,1
2018-12-06T05:05:03.502Z,1
2018-12-06T05:10:03.093Z,3
2018-12-06T05:15:02.653Z,1
2018-12-06T05:20:03.164Z,3
2018-12-06T05:25:02.870Z,1
2018-12-06T05:30:03.432Z,0
2018-12-06T05:35:02.934Z,2
2018-12-06T05:40:03.527Z,3
2018-12-06T05:45:03.010Z,2
2018-12-06T05:50:03.532Z,2
2018-12-06T05:55:03.022Z,2
2018-12-06T06:00:02.568Z,3
2018-12-06T06:05:03.182Z,2
2018-12-06T06:10:02.671Z,2
2018-12-06T06:15:03.168Z,2
2018-12-06T06:20:02.655Z,6
2018-12-06T06:25:03.116Z,3
2018-12-06T06:30:02.625Z,3
2018-12-06T06:35:03.032Z,3
2018-12-06T06:40:03.522Z,2
2018-12-06T06:45:02.987Z,3
2018-12-06T06:50:03.509Z,3
2018-12-06T06:55:02.923Z,3
2018-12-06T07:00:03.413Z,3
2018-12-06T07:05:02.883Z,3
2018-12-06T07:10:03.347Z,3
2018-12-06T07:15:02.732Z,3
2018-12-06T07:20:03.213Z,4
2018-12-06T07:25:02.669Z,4
2018-12-06T07:30:03.138Z,2
2018-12-06T07:35:02.665Z,2
2018-12-06T07:40:03.278Z,3
2018-12-06T07:45:02.790Z,4
2018-12-06T07:50:03.281Z,4
2018-12-06T07:55:02.702Z,3
2018-12-06T08:00:03.341Z,3
2018-12-06T08:05:02.781Z,4
2018-12-06T08:10:03.270Z,3
2018-12-06T08:15:02.715Z,2
2018-12-06T08:20:03.159Z,4
2018-12-06T08:25:02.594Z,4
2018-12-06T08:30:03.418Z,5
2018-12-06T08:35:02.893Z,3
2018-12-06T08:40:03.410Z,5
2018-12-06T08:45:02.914Z,3
2018-12-06T08:50:03.342Z,3
2018-12-06T08:55:02.803Z,8
2018-12-06T09:00:03.197Z,5
2018-12-06T09:05:02.692Z,4
2018-12-06T09:10:03.243Z,6
2018-12-06T09:15:02.730Z,3
2018-12-06T09:20:03.261Z,6
2018-12-06T09:25:02.815Z,6
2018-12-06T09:30:03.247Z,5
2018-12-06T09:35:02.701Z,5
2018-12-06T09:40:03.141Z,4
2018-12-06T09:45:02.656Z,7
2018-12-06T09:50:03.104Z,8
2018-12-06T09:55:02.549Z,5
2018-12-06T10:00:03.000Z,8
2018-12-06T10:05:02.566Z,5
2018-12-06T10:10:03.135Z,4
2018-12-06T10:15:02.710Z,5
2018-12-06T10:20:03.146Z,3
2018-12-06T10:25:02.873Z,6
2018-12-06T10:30:03.351Z,7
2018-12-06T10:35:02.851Z,3
2018-12-06T10:40:03.342Z,5
2018-12-06T10:45:02.814Z,8
2018-12-06T10:50:03.196Z,5
2018-12-06T10:55:03.714Z,3
2018-12-06T11:00:03.203Z,5
2018-12-06T11:05:02.816Z,7
2018-12-06T11:10:03.560Z,5
2018-12-06T11:15:02.997Z,3
2018-12-06T11:20:03.511Z,4
2018-12-06T11:25:02.955Z,6
2018-12-06T11:30:03.465Z,5
2018-12-06T11:35:02.882Z,3
2018-12-06T11:40:03.471Z,7
2018-12-06T11:45:02.947Z,3
2018-12-06T11:50:03.447Z,5
2018-12-06T11:55:02.923Z,7
2018-12-06T12:00:03.357Z,5
2018-12-06T12:05:02.858Z,7
2018-12-06T12:10:03.395Z,7
2018-12-06T12:15:02.848Z,4
2018-12-06T12:20:03.409Z,7
2018-12-06T12:25:02.705Z,6
2018-12-06T12:30:03.239Z,7
2018-12-06T12:35:02.769Z,9
2018-12-06T12:40:03.359Z,5
2018-12-06T12:45:05.531Z,7
2018-12-06T12:50:02.965Z,7
2018-12-06T12:55:03.995Z,6
2018-12-06T13:00:03.455Z,6
2018-12-06T13:05:03.070Z,6
2018-12-06T13:10:02.625Z,5
2018-12-06T13:15:03.005Z,8
2018-12-06T13:20:03.472Z,5
2018-12-06T13:25:02.915Z,3
2018-12-06T13:30:03.351Z,3
2018-12-06T13:35:02.834Z,6
2018-12-06T13:40:03.429Z,5
2018-12-06T13:45:02.946Z,5
2018-12-06T13:50:03.418Z,8
2018-12-06T13:55:02.839Z,5
2018-12-06T14:00:03.338Z,4
2018-12-06T14:05:02.833Z,5
2018-12-06T14:10:03.438Z,7
2018-12-06T14:15:03.177Z,5
2018-12-06T14:20:02.713Z,6
2018-12-06T14:25:03.302Z,3
2018-12-06T14:30:02.908Z,7
2018-12-06T14:35:03.340Z,8
2018-12-06T14:40:02.881Z,5
2018-12-06T14:45:03.302Z,4
2018-12-06T14:50:02.787Z,5
2018-12-06T14:55:03.170Z,6
2018-12-06T15:00:02.709Z,6
2018-12-06T15:05:03.331Z,7
2018-12-06T15:10:02.863Z,5
2018-12-06T15:15:03.407Z,5
2018-12-06T15:20:02.897Z,6
2018-12-06T15:25:03.424Z,5
2018-12-06T15:30:02.942Z,7
2018-12-06T15:35:03.524Z,5
2018-12-06T15:40:03.093Z,4
2018-12-06T15:45:02.629Z,5
2018-12-06T15:50:03.323Z,8
2018-12-06T15:55:02.774Z,7
2018-12-06T16:00:03.196Z,7
2018-12-06T16:05:02.969Z,6
2018-12-06T16:10:03.574Z,5
2018-12-06T16:15:03.088Z,4
2018-12-06T16:20:03.524Z,7
2018-12-06T16:25:03.044Z,8
2018-12-06T16:30:03.514Z,5
2018-12-06T16:35:02.926Z,5
2018-12-06T16:40:03.579Z,6
2018-12-06T16:45:03.047Z,4
2018-12-06T16:50:02.592Z,7
2018-12-06T16:55:03.170Z,7
2018-12-06T17:00:02.642Z,7
2018-12-06T17:05:03.217Z,9
2018-12-06T17:10:02.736Z,6
2018-12-06T17:15:03.236Z,8
2018-12-06T17:20:02.764Z,5
2018-12-06T17:25:03.391Z,12
2018-12-06T17:30:02.799Z,9
2018-12-06T17:35:03.252Z,8
2018-12-06T17:40:02.767Z,8
2018-12-06T17:45:03.224Z,7
2018-12-06T17:50:02.740Z,8
2018-12-06T17:55:03.207Z,7
2018-12-06T18:00:02.743Z,7
2018-12-06T18:05:03.552Z,5
2018-12-06T18:10:03.017Z,6
2018-12-06T18:15:03.512Z,7
2018-12-06T18:20:02.971Z,8
2018-12-06T18:25:03.506Z,7
2018-12-06T18:30:02.943Z,5
2018-12-06T18:35:03.429Z,6
2018-12-06T18:40:03.029Z,7
2018-12-06T18:45:03.515Z,10
2018-12-06T18:50:03.044Z,10
2018-12-06T18:55:03.509Z,9
2018-12-06T19:00:02.923Z,9
2018-12-06T19:05:03.416Z,10
2018-12-06T19:10:02.940Z,7
2018-12-06T19:15:03.542Z,7
2018-12-06T19:20:02.940Z,6
2018-12-06T19:25:03.429Z,9
2018-12-06T19:30:02.910Z,4
2018-12-06T19:35:03.452Z,7
2018-12-06T19:40:03.024Z,6
2018-12-06T19:45:03.446Z,7
2018-12-06T19:50:02.953Z,7
2018-12-06T19:55:03.539Z,4
2018-12-06T20:00:02.907Z,5
2018-12-06T20:05:03.441Z,7
2018-12-06T20:10:02.966Z,7
2018-12-06T20:15:03.492Z,6
2018-12-06T20:20:03.125Z,9
2018-12-06T20:25:02.607Z,8
2018-12-06T20:30:03.154Z,8
2018-12-06T20:35:02.644Z,7
2018-12-06T20:40:03.372Z,6
2018-12-06T20:45:02.868Z,7
2018-12-06T20:50:03.372Z,5
2018-12-06T20:55:02.830Z,9
2018-12-06T21:00:03.286Z,10
2018-12-06T21:05:02.816Z,7
2018-12-06T21:10:03.392Z,7
2018-12-06T21:15:02.809Z,9
2018-12-06T21:20:03.304Z,9
2018-12-06T21:25:02.913Z,5
2018-12-06T21:30:03.392Z,6
2018-12-06T21:35:02.966Z,6
2018-12-06T21:40:03.771Z,7
2018-12-06T21:45:03.259Z,10
2018-12-06T21:50:02.978Z,5
2018-12-06T21:55:03.712Z,5
2018-12-06T22:00:03.203Z,10
2018-12-06T22:05:02.798Z,7
2018-12-06T22:10:03.451Z,10
2018-12-06T22:15:02.929Z,6
2018-12-06T22:20:03.690Z,7
2018-12-06T22:25:03.268Z,9
2018-12-06T22:30:03.073Z,6
2018-12-06T22:35:02.588Z,6
2018-12-06T22:40:03.365Z,8
2018-12-06T22:45:02.845Z,7
2018-12-06T22:50:03.387Z,7
2018-12-06T22:55:02.874Z,8
2018-12-06T23:00:03.414Z,8
2018-12-06T23:05:03.458Z,6
2018-12-06T23:10:02.977Z,8
2018-12-06T23:15:03.448Z,10
2018-12-06T23:20:03.006Z,5
2018-12-06T23:25:03.351Z,7
2018-12-06T23:30:02.907Z,8
2018-12-06T23:35:03.464Z,5
2018-12-06T23:40:02.975Z,5
2018-12-06T23:45:03.435Z,7
2018-12-06T23:50:02.888Z,7
2018-12-06T23:55:03.278Z,11
